createdAt,value
2019-02-19T00:00:35.842Z,92.54
2019-02-19T00:03:05.569Z,93.06
2019-02-19T00:05:35.061Z,92.64
2019-02-19T00:08:04.622Z,92.67
2019-02-19T00:10:34.115Z,92.47
2019-02-19T00:13:03.658Z,92.09
2019-02-19T00:15:33.182Z,91.98
2019-02-19T00:18:02.665Z,92.65
2019-02-19T00:20:32.228Z,92.49
2019-02-19T00:23:01.726Z,92.12
2019-02-19T00:25:31.280Z,92.52
2019-02-19T00:28:00.803Z,92.81
2019-02-19T00:30:30.293Z,93.45
2019-02-19T00:32:59.770Z,92.52
2019-02-19T00:35:29.311Z,88.17
2019-02-19T00:37:58.797Z,83.50
2019-02-19T00:40:28.356Z,81.19
2019-02-19T00:42:57.887Z,79.31
2019-02-19T00:45:27.369Z,79.01
2019-02-19T00:47:56.862Z,77.51
2019-02-19T00:50:26.385Z,77.18
2019-02-19T00:52:55.865Z,77.02
2019-02-19T00:55:25.351Z,76.88
2019-02-19T00:57:56.229Z,77.06
2019-02-19T01:00:25.736Z,77.21
2019-02-19T01:02:55.205Z,78.26
2019-02-19T01:05:24.826Z,79.51
2019-02-19T01:07:54.492Z,80.58
2019-02-19T01:10:24.017Z,82.33
2019-02-19T01:12:53.559Z,82.49
2019-02-19T01:15:25.453Z,83.25
2019-02-19T01:17:54.256Z,84.33
2019-02-19T01:20:23.822Z,84.09
2019-02-19T01:22:53.318Z,82.67
2019-02-19T01:25:22.810Z,82.73
2019-02-19T01:27:52.289Z,82.81
2019-02-19T01:30:21.759Z,83.48
2019-02-19T01:32:51.243Z,82.49
2019-02-19T01:35:20.711Z,81.89
2019-02-19T01:37:50.251Z,81.06
2019-02-19T01:40:19.732Z,80.08
2019-02-19T01:42:49.217Z,80.05
2019-02-19T01:45:18.723Z,80.11
2019-02-19T01:47:48.208Z,80.06
2019-02-19T01:50:17.739Z,80.00
2019-02-19T01:52:47.211Z,79.84
2019-02-19T01:55:16.695Z,80.83
2019-02-19T01:57:46.314Z,81.24
2019-02-19T02:00:15.872Z,81.65
2019-02-19T02:02:45.359Z,80.60
2019-02-19T02:05:14.832Z,81.05
2019-02-19T02:07:44.434Z,80.84
2019-02-19T02:10:13.916Z,80.74
2019-02-19T02:12:43.389Z,79.76
2019-02-19T02:15:12.897Z,79.88
2019-02-19T02:17:42.374Z,80.68
2019-02-19T02:20:11.867Z,81.97
2019-02-19T02:22:41.367Z,82.89
2019-02-19T02:25:10.981Z,83.91
2019-02-19T02:27:40.553Z,84.05
2019-02-19T02:30:10.274Z,83.39
2019-02-19T02:32:39.748Z,82.41
2019-02-19T02:35:11.294Z,81.78
2019-02-19T02:37:40.485Z,81.30
2019-02-19T02:40:10.062Z,81.35
2019-02-19T02:42:39.539Z,81.24
2019-02-19T02:45:09.164Z,82.33
2019-02-19T02:47:38.651Z,82.72
2019-02-19T02:50:08.218Z,84.00
2019-02-19T02:52:37.788Z,84.39
2019-02-19T02:55:07.270Z,84.55
2019-02-19T02:57:36.807Z,84.51
2019-02-19T03:00:09.337Z,85.44
2019-02-19T03:02:58.147Z,84.86
2019-02-19T03:05:27.619Z,84.99
2019-02-19T03:07:58.735Z,85.04
2019-02-19T03:10:28.309Z,84.38
2019-02-19T03:12:57.905Z,84.37
2019-02-19T03:15:27.391Z,84.26
2019-02-19T03:17:56.883Z,84.35
2019-02-19T03:20:26.360Z,84.88
2019-02-19T03:22:55.886Z,84.78
2019-02-19T03:25:25.366Z,84.49
2019-02-19T03:27:54.866Z,85.47
2019-02-19T03:30:24.369Z,85.08
2019-02-19T03:32:54.043Z,85.75
2019-02-19T03:35:23.536Z,86.38
2019-02-19T03:37:53.025Z,87.54
2019-02-19T03:40:22.537Z,86.89
2019-02-19T03:42:52.089Z,86.52
2019-02-19T03:45:21.614Z,87.92
2019-02-19T03:47:51.120Z,88.42
2019-02-19T03:50:20.634Z,87.79
2019-02-19T03:52:50.145Z,87.98
2019-02-19T03:55:19.630Z,88.54
2019-02-19T03:57:49.117Z,89.58
2019-02-19T04:00:18.714Z,90.50
2019-02-19T04:02:48.230Z,90.58
2019-02-19T04:05:17.894Z,89.63
2019-02-19T04:07:47.375Z,89.96
2019-02-19T04:10:16.873Z,90.51
2019-02-19T04:12:46.328Z,89.08
2019-02-19T04:15:15.988Z,90.18
2019-02-19T04:17:45.542Z,92.24
2019-02-19T04:20:15.025Z,92.84
2019-02-19T04:22:44.572Z,93.09
2019-02-19T04:25:14.069Z,96.41
2019-02-19T04:27:43.559Z,96.53
2019-02-19T04:30:13.150Z,97.90
2019-02-19T04:32:42.643Z,97.72
2019-02-19T04:35:12.184Z,99.36
2019-02-19T04:37:41.752Z,100.00
2019-02-19T04:40:11.328Z,100.00
2019-02-19T04:42:40.804Z,100.00
2019-02-19T04:45:10.421Z,100.00
2019-02-19T04:47:40.007Z,100.00
2019-02-19T04:50:10.254Z,100.00
2019-02-19T04:52:39.745Z,100.00
2019-02-19T04:55:09.669Z,100.00
2019-02-19T04:57:39.312Z,100.00
2019-02-19T05:00:32.852Z,100.00
2019-02-19T05:03:02.411Z,100.00
2019-02-19T05:05:31.896Z,100.00
2019-02-19T05:08:01.403Z,100.00
2019-02-19T05:10:31.015Z,100.00
2019-02-19T05:13:00.522Z,100.00
2019-02-19T05:15:30.963Z,100.00
2019-02-19T05:18:00.452Z,100.00
2019-02-19T05:20:30.007Z,100.00
2019-02-19T05:22:59.490Z,100.00
2019-02-19T05:25:28.985Z,100.00
2019-02-19T05:27:58.487Z,100.00
2019-02-19T05:30:27.990Z,100.00
2019-02-19T05:32:57.602Z,100.00
2019-02-19T05:35:27.117Z,100.00
2019-02-19T05:37:56.625Z,100.00
2019-02-19T05:40:26.106Z,100.00
2019-02-19T05:42:55.627Z,100.00
2019-02-19T05:45:25.172Z,100.00
2019-02-19T05:47:54.695Z,100.00
2019-02-19T05:50:24.299Z,100.00
2019-02-19T05:52:53.805Z,100.00
2019-02-19T05:55:23.382Z,100.00
2019-02-19T05:57:52.882Z,100.00
2019-02-19T06:00:22.376Z,100.00
2019-02-19T06:02:51.860Z,100.00
2019-02-19T06:05:21.420Z,100.00
2019-02-19T06:07:50.872Z,100.00
2019-02-19T06:10:20.386Z,100.00
2019-02-19T06:12:49.869Z,100.00
2019-02-19T06:15:19.353Z,100.00
2019-02-19T06:17:48.892Z,100.00
2019-02-19T06:20:18.422Z,100.00
2019-02-19T06:22:47.909Z,100.00
2019-02-19T06:25:17.409Z,100.00
2019-02-19T06:27:46.898Z,100.00
2019-02-19T06:30:16.389Z,100.00
2019-02-19T06:32:45.965Z,100.00
2019-02-19T06:35:15.627Z,100.00
2019-02-19T06:37:45.096Z,100.00
2019-02-19T06:40:29.734Z,100.00
2019-02-19T06:42:59.211Z,100.00
2019-02-19T06:45:28.686Z,100.00
2019-02-19T06:47:58.174Z,100.00
2019-02-19T06:50:27.759Z,100.00
2019-02-19T06:52:57.254Z,100.00
2019-02-19T06:55:26.743Z,100.00
2019-02-19T06:57:56.293Z,100.00
2019-02-19T07:00:25.786Z,100.00
2019-02-19T07:03:13.488Z,100.00
2019-02-19T07:05:43.015Z,100.00
2019-02-19T07:08:12.508Z,100.00
2019-02-19T07:10:42.025Z,100.00
2019-02-19T07:13:11.505Z,100.00
2019-02-19T07:15:41.030Z,100.00
2019-02-19T07:18:10.588Z,100.00
2019-02-19T07:20:40.115Z,100.00
2019-02-19T07:23:09.603Z,100.00
2019-02-19T07:25:39.156Z,100.00
2019-02-19T07:28:08.659Z,100.00
2019-02-19T07:30:38.144Z,100.00
2019-02-19T07:33:07.649Z,100.00
2019-02-19T07:35:37.140Z,100.00
2019-02-19T07:38:06.695Z,100.00
2019-02-19T07:40:36.259Z,100.00
2019-02-19T07:43:05.823Z,100.00
2019-02-19T07:45:35.312Z,100.00
2019-02-19T07:48:04.923Z,100.00
2019-02-19T07:50:34.491Z,100.00
2019-02-19T07:53:04.045Z,100.00
2019-02-19T07:55:33.550Z,100.00
2019-02-19T07:58:03.131Z,100.00
2019-02-19T08:00:32.697Z,100.00
2019-02-19T08:03:02.175Z,100.00
2019-02-19T08:05:31.682Z,100.00
2019-02-19T08:08:01.174Z,100.00
2019-02-19T08:10:30.679Z,100.00
2019-02-19T08:13:00.263Z,100.00
2019-02-19T08:15:29.816Z,100.00
2019-02-19T08:17:59.308Z,100.00
2019-02-19T08:20:28.799Z,100.00
2019-02-19T08:22:58.283Z,100.00
2019-02-19T08:25:27.952Z,100.00
2019-02-19T08:27:57.457Z,100.00
2019-02-19T08:30:26.958Z,100.00
2019-02-19T08:32:56.542Z,100.00
2019-02-19T08:35:26.040Z,99.77
2019-02-19T08:37:55.525Z,98.44
2019-02-19T08:40:25.101Z,98.32
2019-02-19T08:42:54.581Z,96.93
2019-02-19T08:45:24.162Z,96.55
2019-02-19T08:47:53.665Z,96.27
2019-02-19T08:50:23.203Z,97.11
2019-02-19T08:52:52.785Z,96.62
2019-02-19T08:55:22.275Z,96.86
2019-02-19T08:57:51.768Z,97.28
2019-02-19T09:00:21.342Z,98.55
2019-02-19T09:02:50.843Z,97.86
2019-02-19T09:05:20.354Z,97.41
2019-02-19T09:07:49.868Z,96.50
2019-02-19T09:10:19.377Z,95.03
2019-02-19T09:12:48.858Z,94.55
2019-02-19T09:15:18.337Z,95.81
2019-02-19T09:17:51.927Z,96.23
2019-02-19T09:20:19.149Z,95.40
2019-02-19T09:22:48.635Z,91.19
2019-02-19T09:25:18.121Z,89.21
2019-02-19T09:27:47.604Z,92.53
2019-02-19T09:30:17.113Z,85.03
2019-02-19T09:32:46.601Z,84.50
2019-02-19T09:35:16.103Z,81.18
2019-02-19T09:37:45.682Z,73.39
2019-02-19T09:40:15.364Z,75.32
2019-02-19T09:42:44.899Z,74.04
2019-02-19T09:45:14.437Z,74.48
2019-02-19T09:47:43.938Z,71.88
2019-02-19T09:50:13.413Z,68.32
2019-02-19T09:52:42.900Z,68.58
2019-02-19T09:55:12.542Z,70.16
2019-02-19T09:57:42.119Z,67.23
2019-02-19T10:00:14.498Z,64.51
2019-02-19T10:02:44.145Z,66.83
2019-02-19T10:05:13.741Z,64.39
2019-02-19T10:07:43.232Z,65.53
2019-02-19T10:10:23.678Z,64.78
2019-02-19T10:12:53.170Z,61.52
2019-02-19T10:15:22.708Z,62.74
2019-02-19T10:17:52.198Z,63.67
2019-02-19T10:20:21.703Z,62.35
2019-02-19T10:22:51.188Z,63.93
2019-02-19T10:25:20.671Z,59.60
2019-02-19T10:27:50.185Z,58.53
2019-02-19T10:30:21.005Z,59.98
2019-02-19T10:32:50.500Z,58.52
2019-02-19T10:35:20.118Z,56.53
2019-02-19T10:37:49.628Z,58.12
2019-02-19T10:40:21.227Z,54.97
2019-02-19T10:42:50.715Z,55.87
2019-02-19T10:45:27.640Z,56.49
2019-02-19T10:47:57.144Z,57.95
2019-02-19T10:50:26.659Z,56.94
2019-02-19T10:52:56.141Z,57.57
2019-02-19T10:55:25.611Z,58.54
2019-02-19T10:57:55.106Z,57.18
2019-02-19T11:00:25.011Z,54.76
2019-02-19T11:02:54.499Z,54.50
2019-02-19T11:05:23.977Z,57.16
2019-02-19T11:07:53.484Z,54.75
2019-02-19T11:10:23.019Z,53.75
2019-02-19T11:12:52.528Z,54.57
2019-02-19T11:15:22.014Z,52.93
2019-02-19T11:17:51.505Z,54.25
2019-02-19T11:20:22.809Z,52.12
2019-02-19T11:22:52.300Z,53.57
2019-02-19T11:25:21.783Z,53.03
2019-02-19T11:27:51.334Z,53.17
2019-02-19T11:30:21.318Z,53.73
2019-02-19T11:32:50.805Z,56.18
2019-02-19T11:35:20.292Z,54.90
2019-02-19T11:37:49.856Z,54.77
2019-02-19T11:40:19.350Z,53.05
2019-02-19T11:42:48.842Z,52.98
2019-02-19T11:45:20.310Z,54.40
2019-02-19T11:47:49.794Z,53.75
2019-02-19T11:50:19.303Z,51.85
2019-02-19T11:52:48.797Z,54.38
2019-02-19T11:55:20.006Z,52.92
2019-02-19T11:57:49.515Z,53.89
2019-02-19T12:00:29.615Z,52.91
2019-02-19T12:02:59.097Z,53.22
2019-02-19T12:05:28.612Z,53.81
2019-02-19T12:07:58.194Z,54.35
2019-02-19T12:10:27.699Z,55.86
2019-02-19T12:12:57.243Z,58.86
2019-02-19T12:15:34.938Z,59.12
2019-02-19T12:17:58.180Z,59.38
2019-02-19T12:20:27.655Z,60.46
2019-02-19T12:22:57.164Z,61.25
2019-02-19T12:25:26.673Z,61.63
2019-02-19T12:27:56.196Z,58.50
2019-02-19T12:30:25.754Z,57.38
2019-02-19T12:32:55.258Z,57.82
2019-02-19T12:35:24.781Z,57.67
2019-02-19T12:37:54.355Z,57.39
2019-02-19T12:40:23.846Z,58.05
2019-02-19T12:42:53.447Z,58.16
2019-02-19T12:45:23.027Z,57.59
2019-02-19T12:47:52.522Z,56.75
2019-02-19T12:50:22.034Z,56.50
2019-02-19T12:52:51.536Z,55.78
2019-02-19T12:55:21.807Z,55.93
2019-02-19T12:57:51.307Z,57.14
2019-02-19T13:00:21.130Z,58.22
2019-02-19T13:02:50.683Z,58.71
2019-02-19T13:05:20.200Z,59.45
2019-02-19T13:07:49.711Z,58.68
2019-02-19T13:10:19.209Z,58.29
2019-02-19T13:12:49.628Z,59.48
2019-02-19T13:15:21.836Z,60.54
2019-02-19T13:17:51.355Z,62.22
2019-02-19T13:20:20.958Z,61.52
2019-02-19T13:22:50.489Z,61.52
2019-02-19T13:25:19.973Z,61.70
2019-02-19T13:27:49.519Z,62.58
2019-02-19T13:30:22.693Z,60.50
2019-02-19T13:32:52.184Z,61.13
2019-02-19T13:35:21.825Z,63.53
2019-02-19T13:37:51.387Z,62.25
2019-02-19T13:40:21.499Z,63.23
2019-02-19T13:42:51.046Z,60.89
2019-02-19T13:45:20.632Z,59.21
2019-02-19T13:47:50.142Z,59.39
2019-02-19T13:50:24.555Z,58.23
2019-02-19T13:52:55.693Z,58.14
2019-02-19T13:55:26.909Z,60.43
2019-02-19T13:57:57.444Z,61.93
2019-02-19T14:00:28.805Z,62.63
2019-02-19T14:02:58.300Z,63.95
2019-02-19T14:05:27.856Z,64.75
2019-02-19T14:07:57.335Z,64.28
2019-02-19T14:10:26.859Z,62.99
2019-02-19T14:12:56.375Z,63.49
2019-02-19T14:15:44.174Z,62.57
2019-02-19T14:18:15.308Z,61.72
2019-02-19T14:20:48.865Z,63.82
2019-02-19T14:23:36.119Z,63.70
2019-02-19T14:26:23.421Z,63.01
2019-02-19T14:29:07.808Z,64.40
2019-02-19T14:31:44.814Z,62.01
2019-02-19T14:34:26.030Z,61.38
2019-02-19T14:36:59.990Z,57.79
2019-02-19T14:39:31.183Z,58.17
2019-02-19T14:42:06.398Z,59.13
2019-02-19T14:44:49.525Z,59.35
2019-02-19T14:47:29.721Z,60.45
2019-02-19T14:50:16.936Z,62.19
2019-02-19T14:52:50.491Z,61.39
2019-02-19T14:55:30.861Z,62.31
2019-02-19T14:58:02.926Z,63.05
2019-02-19T15:00:37.022Z,62.38
2019-02-19T15:03:08.184Z,64.40
2019-02-19T15:05:40.132Z,65.69
2019-02-19T15:08:14.255Z,65.18
2019-02-19T15:10:57.612Z,63.95
2019-02-19T15:13:31.696Z,62.24
2019-02-19T15:16:02.847Z,60.89
2019-02-19T15:18:34.863Z,60.63
2019-02-19T15:21:17.872Z,61.40
2019-02-19T15:24:05.144Z,62.03
2019-02-19T15:26:41.993Z,63.71
2019-02-19T15:29:15.569Z,64.68
2019-02-19T15:31:46.726Z,64.38
2019-02-19T15:34:20.672Z,66.18
2019-02-19T15:37:08.206Z,64.68
2019-02-19T15:39:55.412Z,65.55
2019-02-19T15:42:36.402Z,64.76
2019-02-19T15:45:10.244Z,65.83
2019-02-19T15:47:57.693Z,66.36
2019-02-19T15:50:44.937Z,65.49
2019-02-19T15:53:14.215Z,64.47
2019-02-19T15:56:01.327Z,65.72
2019-02-19T15:58:38.081Z,65.55
2019-02-19T16:01:25.526Z,66.13
2019-02-19T16:03:59.454Z,66.34
2019-02-19T16:06:30.590Z,65.64
2019-02-19T16:09:07.243Z,66.01
2019-02-19T16:11:53.663Z,65.04
2019-02-19T16:14:24.823Z,63.73
2019-02-19T16:16:56.507Z,64.21
2019-02-19T16:19:33.400Z,66.01
2019-02-19T16:22:10.284Z,66.68
2019-02-19T16:24:41.428Z,66.39
2019-02-19T16:27:12.645Z,68.06
2019-02-19T16:29:55.780Z,68.04
2019-02-19T16:32:33.124Z,68.22
2019-02-19T16:35:09.096Z,69.12
2019-02-19T16:37:51.804Z,70.40
2019-02-19T16:40:39.116Z,70.43
2019-02-19T16:43:10.307Z,70.96
2019-02-19T16:45:41.549Z,72.76
2019-02-19T16:48:28.043Z,72.77
2019-02-19T16:51:04.767Z,74.32
2019-02-19T16:53:53.605Z,73.83
2019-02-19T16:56:41.086Z,73.73
2019-02-19T16:59:24.125Z,74.60
2019-02-19T17:02:00.805Z,73.55
2019-02-19T17:04:34.392Z,74.38
2019-02-19T17:07:11.112Z,75.58
2019-02-19T17:09:54.498Z,75.32
2019-02-19T17:12:41.776Z,75.43
2019-02-19T17:15:30.123Z,75.59
2019-02-19T17:18:05.727Z,75.85
2019-02-19T17:20:36.878Z,76.92
2019-02-19T17:23:08.077Z,78.21
2019-02-19T17:25:41.957Z,78.85
2019-02-19T17:28:18.832Z,79.55
2019-02-19T17:30:52.728Z,80.23
2019-02-19T17:33:23.927Z,80.49
2019-02-19T17:35:59.521Z,80.95
2019-02-19T17:38:33.072Z,82.01
2019-02-19T17:41:04.252Z,82.54
2019-02-19T17:43:35.402Z,82.96
2019-02-19T17:46:06.638Z,83.53
2019-02-19T17:48:40.536Z,84.11
2019-02-19T17:51:09.908Z,84.95
2019-02-19T17:53:50.116Z,85.33
2019-02-19T17:56:34.403Z,85.13
2019-02-19T17:59:05.552Z,85.66
2019-02-19T18:01:42.461Z,85.60
2019-02-19T18:04:19.334Z,86.42
2019-02-19T18:06:48.591Z,86.83
2019-02-19T18:09:28.893Z,87.15
2019-02-19T18:12:00.049Z,87.11
2019-02-19T18:14:46.166Z,87.43
2019-02-19T18:17:19.837Z,88.26
2019-02-19T18:19:49.599Z,89.36
2019-02-19T18:22:19.253Z,89.12
2019-02-19T18:24:48.896Z,88.52
2019-02-19T18:27:18.379Z,88.44
2019-02-19T18:29:47.861Z,87.96
2019-02-19T18:32:17.410Z,87.88
2019-02-19T18:34:46.932Z,88.17
2019-02-19T18:37:16.429Z,87.79
2019-02-19T18:39:45.901Z,87.43
2019-02-19T18:42:15.406Z,86.69
2019-02-19T18:44:44.892Z,86.07
2019-02-19T18:47:14.452Z,86.36
2019-02-19T18:49:43.957Z,86.77
2019-02-19T18:52:13.505Z,86.91
2019-02-19T18:54:43.022Z,86.46
2019-02-19T18:57:12.484Z,85.98
2019-02-19T18:59:42.019Z,86.08
2019-02-19T19:02:11.510Z,85.32
2019-02-19T19:04:41.016Z,86.00
2019-02-19T19:07:10.600Z,86.29
2019-02-19T19:09:40.092Z,86.46
2019-02-19T19:12:09.586Z,86.71
2019-02-19T19:14:39.055Z,86.95
2019-02-19T19:17:08.573Z,86.75
2019-02-19T19:19:38.114Z,86.82
2019-02-19T19:22:07.602Z,86.88
2019-02-19T19:24:37.159Z,87.45
2019-02-19T19:27:06.745Z,87.35
2019-02-19T19:29:36.254Z,88.19
2019-02-19T19:32:05.844Z,87.26
2019-02-19T19:34:35.364Z,87.57
2019-02-19T19:37:04.930Z,87.69
2019-02-19T19:39:34.435Z,88.09
2019-02-19T19:42:03.992Z,88.60
2019-02-19T19:44:33.557Z,89.17
2019-02-19T19:47:03.219Z,90.06
2019-02-19T19:49:32.721Z,90.62
2019-02-19T19:52:02.283Z,91.29
2019-02-19T19:54:31.791Z,91.87
2019-02-19T19:57:01.303Z,92.38
2019-02-19T19:59:30.811Z,92.76
2019-02-19T20:02:00.296Z,92.88
2019-02-19T20:04:29.809Z,92.62
2019-02-19T20:06:59.334Z,92.57
2019-02-19T20:09:28.807Z,92.88
2019-02-19T20:11:58.318Z,93.12
2019-02-19T20:14:27.805Z,93.10
2019-02-19T20:16:57.597Z,93.65
2019-02-19T20:19:27.061Z,93.52
2019-02-19T20:21:56.615Z,94.04
2019-02-19T20:24:26.192Z,94.30
2019-02-19T20:26:58.049Z,94.75
2019-02-19T20:29:27.693Z,94.92
2019-02-19T20:31:57.317Z,94.34
2019-02-19T20:34:26.856Z,94.60
2019-02-19T20:36:56.364Z,95.16
2019-02-19T20:39:25.844Z,95.13
2019-02-19T20:41:55.376Z,94.83
2019-02-19T20:44:24.983Z,94.78
2019-02-19T20:46:54.496Z,94.60
2019-02-19T20:49:24.135Z,94.80
2019-02-19T20:51:53.640Z,94.33
2019-02-19T20:54:23.208Z,94.43
2019-02-19T20:56:52.701Z,93.99
2019-02-19T20:59:22.341Z,94.39
2019-02-19T21:01:51.903Z,94.27
2019-02-19T21:04:21.473Z,94.66
2019-02-19T21:06:50.976Z,95.46
2019-02-19T21:09:20.613Z,95.05
2019-02-19T21:11:50.199Z,95.52
2019-02-19T21:14:19.724Z,96.02
2019-02-19T21:16:49.275Z,96.31
2019-02-19T21:19:18.902Z,96.19
2019-02-19T21:21:48.453Z,95.51
2019-02-19T21:24:21.292Z,95.54
2019-02-19T21:26:50.790Z,95.81
2019-02-19T21:29:20.248Z,95.28
2019-02-19T21:31:49.846Z,95.62
2019-02-19T21:34:19.309Z,95.82
2019-02-19T21:36:48.831Z,96.15
2019-02-19T21:39:18.323Z,96.52
2019-02-19T21:41:47.796Z,96.71
2019-02-19T21:44:18.081Z,96.70
2019-02-19T21:46:47.570Z,96.81
2019-02-19T21:49:17.094Z,96.73
2019-02-19T21:51:53.947Z,97.36
2019-02-19T21:54:17.937Z,97.46
2019-02-19T21:56:47.474Z,97.55
2019-02-19T21:59:17.013Z,98.21
2019-02-19T22:01:46.876Z,98.15
2019-02-19T22:04:16.478Z,98.58
2019-02-19T22:06:45.963Z,98.68
2019-02-19T22:09:15.468Z,98.82
2019-02-19T22:11:44.969Z,99.23
2019-02-19T22:14:14.499Z,99.80
2019-02-19T22:16:44.010Z,100.00
2019-02-19T22:19:13.493Z,100.00
2019-02-19T22:21:50.473Z,99.66
2019-02-19T22:24:21.619Z,99.58
2019-02-19T22:26:51.113Z,99.65
2019-02-19T22:29:20.738Z,100.00
2019-02-19T22:31:50.235Z,100.00
2019-02-19T22:34:19.860Z,100.00
2019-02-19T22:36:49.378Z,100.00
2019-02-19T22:39:18.862Z,100.00
2019-02-19T22:41:48.447Z,100.00
2019-02-19T22:44:17.965Z,100.00
2019-02-19T22:46:47.497Z,100.00
2019-02-19T22:49:17.048Z,99.48
2019-02-19T22:51:46.548Z,99.51
2019-02-19T22:54:26.793Z,98.82
2019-02-19T22:56:56.315Z,99.63
2019-02-19T22:59:25.783Z,98.80
2019-02-19T23:01:59.918Z,98.73
2019-02-19T23:04:29.464Z,98.80
2019-02-19T23:06:59.081Z,98.48
2019-02-19T23:09:28.606Z,97.80
2019-02-19T23:11:58.087Z,98.04
2019-02-19T23:14:27.641Z,97.41
2019-02-19T23:16:57.115Z,97.32
2019-02-19T23:19:26.622Z,97.19
2019-02-19T23:21:56.104Z,97.80
2019-02-19T23:24:25.617Z,98.25
2019-02-19T23:26:55.201Z,98.02
2019-02-19T23:29:24.634Z,98.01
2019-02-19T23:31:54.109Z,98.01
2019-02-19T23:34:23.594Z,96.90
2019-02-19T23:36:54.740Z,96.66
2019-02-19T23:39:24.274Z,96.68
2019-02-19T23:41:53.763Z,97.04
2019-02-19T23:44:23.259Z,97.36
2019-02-19T23:46:52.758Z,98.01
2019-02-19T23:49:22.275Z,97.17
2019-02-19T23:51:51.777Z,97.35
2019-02-19T23:54:21.285Z,97.59
2019-02-19T23:56:50.759Z,97.61
2019-02-19T23:59:20.285Z,97.93
